This is the latest recevied weather packets stored in our database for station/object KD0RIH. If no packets are shown the sender has not sent any weather packets the latest 1 day(s).
| Time | Temp. | Humidity | Pressure | Rain* | Wind** | Luminosity | Snow |
|---|---|---|---|---|---|---|---|
| 1778073256 | 11.67° C | 45% | 1017.3 hPa | 0 mm | - | 169 W/m² | - |
| 1778072046 | 10.56° C | 47% | 1017 hPa | 0 mm | - | 257 W/m² | - |
| 1778071744 | 10° C | 48% | 1017 hPa | 0 mm | - | 122 W/m² | - |
| 1778069929 | 8.33° C | 54% | 1016.5 hPa | 0 mm | - | 61 W/m² | - |
| 1778067811 | 8.33° C | 52% | 1016.2 hPa | 0 mm | - | 16 W/m² | - |
| 1778067206 | 8.33° C | 53% | 1016.5 hPa | 0 mm | - | 10 W/m² | - |
| 1778066600 | 8.33° C | 52% | 1016.3 hPa | 0 mm | - | 6 W/m² | - |
| 1778065086 | 8.33° C | 51% | 1015.9 hPa | 0 mm | - | 0 W/m² | - |
| 1778064783 | 8.33° C | 52% | 1015.8 hPa | 0 mm | - | 0 W/m² | - |
| 1778064178 | 8.89° C | 51% | 1015.6 hPa | 0 mm | - | 0 W/m² | - |
| 1778063573 | 8.89° C | 53% | 1015.3 hPa | 0 mm | - | 0 W/m² | - |
| 1778063270 | 8.89° C | 51% | 1015.1 hPa | 0 mm | - | 0 W/m² | - |
| 1778062968 | 8.89° C | 52% | 1015.2 hPa | 0 mm | - | 0 W/m² | - |
| 1778062361 | 8.89° C | 50% | 1015.3 hPa | 0 mm | - | 0 W/m² | - |
| 1778061757 | 8.89° C | 50% | 1015.1 hPa | 0 mm | - | 0 W/m² | - |
| 1778061152 | 8.89° C | 50% | 1015.2 hPa | 0 mm | - | 0 W/m² | - |
| 1778060547 | 8.89° C | 52% | 1014.8 hPa | 0 mm | - | 0 W/m² | - |
| 1778059942 | 9.44° C | 50% | 1015.2 hPa | 0 mm | - | 0 W/m² | - |
| 1778059640 | 9.44° C | 51% | 1015.2 hPa | 0 mm | - | 0 W/m² | - |
| 1778059035 | 9.44° C | 49% | 1014.9 hPa | 0 mm | - | 0 W/m² | - |
| 1778058732 | 9.44° C | 50% | 1015.1 hPa | 0 mm | - | 0 W/m² | - |
| 1778057519 | 9.44° C | 49% | 1014.7 hPa | 0 mm | - | 0 W/m² | - |
| 1778057216 | 9.44° C | 49% | 1014.6 hPa | 0 mm | - | 0 W/m² | - |
| 1778056609 | 9.44° C | 50% | 1014.4 hPa | 0 mm | - | 0 W/m² | - |
| 1778056307 | 9.44° C | 49% | 1014.2 hPa | 0 mm | - | 0 W/m² | - |
* Rain latest hour (hover to see other rain measurements)
** Current wind speed in m/s (hover to see current wind gust speed)